createdAt,value
2018-03-21T00:00:35.867Z,5.80
2018-03-21T00:01:35.869Z,5.50
2018-03-21T00:02:35.859Z,6.00
2018-03-21T00:03:35.853Z,5.50
2018-03-21T00:04:35.840Z,7.00
2018-03-21T00:05:36.022Z,5.80
2018-03-21T00:06:36.023Z,5.90
2018-03-21T00:07:35.808Z,6.60
2018-03-21T00:08:35.798Z,6.00
2018-03-21T00:09:35.991Z,9.70
2018-03-21T00:10:35.777Z,7.10
2018-03-21T00:11:35.957Z,5.10
2018-03-21T00:12:36.003Z,5.80
2018-03-21T00:13:35.765Z,8.20
2018-03-21T00:14:35.724Z,5.70
2018-03-21T00:15:35.927Z,6.80
2018-03-21T00:16:35.729Z,6.40
2018-03-21T00:17:35.704Z,6.10
2018-03-21T00:18:35.683Z,6.00
2018-03-21T00:19:35.914Z,5.40
2018-03-21T00:20:35.658Z,4.40
2018-03-21T00:21:35.655Z,5.10
2018-03-21T00:22:35.646Z,4.80
2018-03-21T00:23:35.619Z,7.80
2018-03-21T00:24:35.621Z,5.50
2018-03-21T00:25:35.610Z,6.80
2018-03-21T00:26:35.620Z,5.90
2018-03-21T00:27:35.800Z,6.80
2018-03-21T00:28:35.586Z,5.60
2018-03-21T00:29:35.779Z,4.70
2018-03-21T00:30:35.583Z,6.80
2018-03-21T00:31:35.553Z,5.40
2018-03-21T00:32:35.542Z,6.10
2018-03-21T00:33:35.533Z,6.20
2018-03-21T00:34:35.515Z,4.40
2018-03-21T00:35:35.501Z,8.40
2018-03-21T00:36:35.510Z,7.50
2018-03-21T00:37:35.512Z,4.90
2018-03-21T00:38:35.682Z,7.40
2018-03-21T00:39:35.673Z,7.10
2018-03-21T00:40:35.483Z,4.00
2018-03-21T00:41:35.460Z,6.90
2018-03-21T00:42:35.643Z,4.80
2018-03-21T00:43:35.432Z,7.00
2018-03-21T00:44:35.641Z,5.10
2018-03-21T00:45:35.426Z,5.30
2018-03-21T00:46:35.613Z,3.60
2018-03-21T00:47:35.395Z,4.70
2018-03-21T00:48:35.393Z,6.50
2018-03-21T00:49:35.575Z,6.30
2018-03-21T00:50:35.362Z,5.00
2018-03-21T00:51:35.567Z,5.40
2018-03-21T00:52:35.350Z,4.60
2018-03-21T00:53:35.347Z,4.80
2018-03-21T00:54:35.528Z,3.70
2018-03-21T00:55:35.330Z,5.00
2018-03-21T00:56:35.521Z,5.40
2018-03-21T00:57:35.501Z,4.90
2018-03-21T00:58:35.288Z,5.40
2018-03-21T00:59:35.481Z,5.10
2018-03-21T01:00:35.271Z,5.80
2018-03-21T01:01:35.280Z,5.30
2018-03-21T01:02:35.461Z,4.70
2018-03-21T01:03:35.240Z,6.20
2018-03-21T01:04:35.436Z,5.70
2018-03-21T01:05:35.221Z,4.60
2018-03-21T01:06:35.417Z,4.60
2018-03-21T01:07:35.205Z,5.00
2018-03-21T01:08:35.192Z,5.10
2018-03-21T01:09:35.203Z,4.80
2018-03-21T01:10:35.374Z,5.80
2018-03-21T01:11:35.173Z,5.00
2018-03-21T01:12:35.154Z,7.90
2018-03-21T01:13:35.148Z,5.60
2018-03-21T01:14:35.340Z,5.20
2018-03-21T01:15:35.133Z,6.20
2018-03-21T01:16:35.331Z,6.60
2018-03-21T01:17:35.106Z,7.20
2018-03-21T01:18:35.104Z,7.00
2018-03-21T01:19:35.291Z,6.20
2018-03-21T01:20:35.089Z,7.00
2018-03-21T01:21:35.079Z,7.60
2018-03-21T01:22:35.277Z,6.60
2018-03-21T01:23:35.256Z,7.10
2018-03-21T01:24:35.047Z,5.60
2018-03-21T01:25:35.028Z,7.40
2018-03-21T01:26:35.017Z,7.70
2018-03-21T01:27:35.024Z,7.50
2018-03-21T01:28:35.023Z,6.80
2018-03-21T01:29:34.988Z,10.30
2018-03-21T01:30:34.979Z,8.30
2018-03-21T01:31:34.977Z,6.70
2018-03-21T01:32:34.958Z,6.70
2018-03-21T01:33:34.957Z,6.60
2018-03-21T01:34:35.154Z,5.90
2018-03-21T01:35:35.130Z,8.20
2018-03-21T01:36:34.930Z,5.40
2018-03-21T01:37:34.928Z,5.50
2018-03-21T01:38:34.901Z,7.40
2018-03-21T01:39:34.889Z,5.70
2018-03-21T01:40:35.090Z,7.40
2018-03-21T01:41:34.867Z,9.00
2018-03-21T01:42:34.856Z,5.70
2018-03-21T01:43:34.857Z,6.10
2018-03-21T01:44:35.039Z,6.00
2018-03-21T01:45:35.032Z,6.30
2018-03-21T01:46:34.816Z,6.60
2018-03-21T01:47:35.011Z,6.90
2018-03-21T01:48:34.809Z,6.70
2018-03-21T01:49:34.796Z,6.40
2018-03-21T01:50:34.980Z,6.00
2018-03-21T01:51:34.973Z,6.60
2018-03-21T01:52:34.986Z,6.00
2018-03-21T01:53:34.748Z,6.40
2018-03-21T01:54:34.736Z,9.20
2018-03-21T01:55:34.727Z,7.30
2018-03-21T01:56:34.718Z,7.90
2018-03-21T01:57:34.722Z,6.50
2018-03-21T01:58:34.699Z,7.00
2018-03-21T01:59:34.687Z,6.30
2018-03-21T02:00:34.883Z,6.10
2018-03-21T02:01:34.875Z,6.50
2018-03-21T02:02:34.690Z,8.10
2018-03-21T02:03:34.864Z,6.50
2018-03-21T02:04:34.654Z,9.90
2018-03-21T02:05:34.629Z,5.80
2018-03-21T02:06:34.619Z,7.10
2018-03-21T02:07:34.609Z,6.40
2018-03-21T02:08:34.805Z,8.40
2018-03-21T02:09:34.602Z,7.80
2018-03-21T02:10:34.588Z,9.30
2018-03-21T02:11:34.570Z,7.00
2018-03-21T02:12:34.563Z,9.10
2018-03-21T02:13:34.566Z,8.70
2018-03-21T02:14:34.541Z,8.70
2018-03-21T02:15:34.545Z,6.90
2018-03-21T02:16:34.549Z,5.60
2018-03-21T02:17:34.528Z,5.90
2018-03-21T02:18:34.509Z,5.60
2018-03-21T02:19:34.492Z,5.50
2018-03-21T02:20:34.687Z,8.90
2018-03-21T02:21:34.476Z,8.80
2018-03-21T02:22:34.464Z,9.40
2018-03-21T02:23:34.464Z,6.70
2018-03-21T02:24:34.443Z,8.50
2018-03-21T02:25:34.448Z,6.30
2018-03-21T02:26:34.434Z,9.80
2018-03-21T02:27:34.414Z,10.70
2018-03-21T02:28:34.618Z,8.30
2018-03-21T02:29:34.596Z,7.10
2018-03-21T02:30:34.604Z,9.00
2018-03-21T02:31:34.376Z,7.70
2018-03-21T02:32:34.378Z,8.60
2018-03-21T02:33:34.571Z,7.70
2018-03-21T02:34:34.343Z,6.70
2018-03-21T02:35:34.550Z,7.40
2018-03-21T02:36:34.355Z,7.10
2018-03-21T02:37:34.323Z,8.80
2018-03-21T02:38:34.322Z,7.20
2018-03-21T02:39:34.306Z,10.40
2018-03-21T02:40:34.307Z,8.80
2018-03-21T02:41:34.275Z,8.90
2018-03-21T02:42:34.483Z,6.00
2018-03-21T02:43:34.264Z,6.70
2018-03-21T02:44:34.257Z,9.00
2018-03-21T02:45:34.234Z,7.70
2018-03-21T02:46:34.237Z,7.80
2018-03-21T02:47:34.213Z,6.60
2018-03-21T02:48:34.408Z,8.90
2018-03-21T02:49:34.398Z,6.60
2018-03-21T02:50:34.412Z,7.40
2018-03-21T02:51:34.183Z,9.90
2018-03-21T02:52:34.184Z,7.60
2018-03-21T02:53:34.166Z,5.90
2018-03-21T02:54:34.366Z,6.80
2018-03-21T02:55:34.352Z,6.30
2018-03-21T02:56:34.130Z,6.10
2018-03-21T02:57:34.327Z,5.20
2018-03-21T02:58:34.116Z,6.20
2018-03-21T02:59:34.315Z,5.80
2018-03-21T03:00:34.286Z,6.60
2018-03-21T03:01:34.080Z,6.00
2018-03-21T03:02:34.085Z,5.70
2018-03-21T03:03:34.051Z,6.50
2018-03-21T03:04:34.254Z,5.70
2018-03-21T03:05:34.045Z,6.20
2018-03-21T03:06:34.235Z,5.50
2018-03-21T03:07:34.014Z,8.50
2018-03-21T03:08:34.010Z,8.20
2018-03-21T03:09:34.227Z,8.40
2018-03-21T03:10:34.209Z,8.50
2018-03-21T03:11:33.981Z,6.30
2018-03-21T03:12:33.962Z,7.10
2018-03-21T03:13:33.950Z,6.70
2018-03-21T03:14:34.158Z,6.70
2018-03-21T03:15:33.940Z,10.00
2018-03-21T03:16:34.127Z,7.80
2018-03-21T03:17:33.907Z,9.60
2018-03-21T03:18:33.905Z,7.60
2018-03-21T03:19:33.885Z,6.90
2018-03-21T03:20:33.904Z,7.50
2018-03-21T03:21:33.867Z,6.20
2018-03-21T03:22:33.869Z,9.10
2018-03-21T03:23:33.845Z,10.30
2018-03-21T03:24:33.832Z,8.90
2018-03-21T03:25:34.038Z,7.80
2018-03-21T03:26:33.817Z,8.30
2018-03-21T03:27:33.817Z,7.90
2018-03-21T03:28:33.805Z,8.00
2018-03-21T03:29:33.781Z,9.90
2018-03-21T03:30:33.975Z,8.70
2018-03-21T03:31:33.990Z,6.70
2018-03-21T03:32:33.750Z,6.50
2018-03-21T03:33:33.768Z,9.20
2018-03-21T03:34:33.728Z,5.80
2018-03-21T03:35:33.749Z,6.30
2018-03-21T03:36:33.709Z,7.60
2018-03-21T03:37:33.712Z,6.60
2018-03-21T03:38:33.707Z,11.20
2018-03-21T03:39:33.685Z,8.00
2018-03-21T03:40:33.674Z,11.20
2018-03-21T03:41:33.657Z,8.20
2018-03-21T03:42:33.646Z,9.20
2018-03-21T03:43:34.354Z,11.40
2018-03-21T03:44:33.632Z,7.50
2018-03-21T03:45:33.820Z,6.30
2018-03-21T03:46:33.601Z,6.10
2018-03-21T03:47:33.599Z,6.40
2018-03-21T03:48:33.582Z,7.50
2018-03-21T03:49:33.772Z,6.40
2018-03-21T03:50:33.810Z,6.60
2018-03-21T03:51:33.759Z,6.50
2018-03-21T03:52:33.743Z,7.40
2018-03-21T03:53:33.527Z,7.70
2018-03-21T03:54:33.531Z,7.00
2018-03-21T03:55:33.769Z,6.80
2018-03-21T03:56:33.697Z,7.90
2018-03-21T03:57:33.495Z,7.50
2018-03-21T03:58:33.686Z,6.20
2018-03-21T03:59:33.475Z,7.30
2018-03-21T04:00:33.656Z,8.50
2018-03-21T04:01:33.441Z,7.80
2018-03-21T04:02:33.436Z,8.10
2018-03-21T04:03:33.636Z,8.70
2018-03-21T04:04:33.414Z,9.10
2018-03-21T04:05:33.402Z,8.30
2018-03-21T04:06:33.403Z,7.90
2018-03-21T04:07:33.407Z,9.70
2018-03-21T04:08:33.380Z,8.00
2018-03-21T04:09:33.363Z,6.70
2018-03-21T04:10:33.361Z,7.20
2018-03-21T04:11:33.339Z,6.40
2018-03-21T04:12:33.327Z,6.80
2018-03-21T04:13:33.319Z,8.00
2018-03-21T04:14:33.311Z,9.20
2018-03-21T04:15:33.500Z,8.50
2018-03-21T04:16:33.287Z,7.40
2018-03-21T04:17:33.282Z,7.90
2018-03-21T04:18:33.472Z,7.10
2018-03-21T04:19:33.257Z,6.20
2018-03-21T04:20:33.257Z,9.80
2018-03-21T04:21:33.236Z,8.00
2018-03-21T04:22:33.225Z,6.90
2018-03-21T04:23:33.219Z,7.60
2018-03-21T04:24:33.208Z,8.70
2018-03-21T04:25:33.195Z,6.00
2018-03-21T04:26:33.188Z,8.00
2018-03-21T04:27:33.380Z,6.30
2018-03-21T04:28:33.177Z,9.60
2018-03-21T04:29:33.369Z,9.00
2018-03-21T04:30:33.152Z,6.60
2018-03-21T04:31:33.148Z,6.60
2018-03-21T04:32:33.123Z,8.90
2018-03-21T04:33:33.116Z,8.60
2018-03-21T04:34:33.118Z,7.60
2018-03-21T04:35:33.104Z,7.30
2018-03-21T04:36:33.098Z,9.10
2018-03-21T04:37:33.090Z,7.90
2018-03-21T04:38:33.280Z,10.10
2018-03-21T04:39:33.080Z,10.20
2018-03-21T04:40:33.044Z,8.10
2018-03-21T04:41:33.046Z,8.10
2018-03-21T04:42:33.025Z,8.10
2018-03-21T04:43:33.013Z,7.50
2018-03-21T04:44:33.203Z,10.00
2018-03-21T04:45:33.001Z,8.70
2018-03-21T04:46:32.991Z,8.50
2018-03-21T04:47:32.988Z,8.40
2018-03-21T04:48:33.164Z,8.60
2018-03-21T04:49:33.167Z,8.10
2018-03-21T04:50:32.948Z,6.70
2018-03-21T04:51:32.942Z,7.40
2018-03-21T04:52:32.934Z,8.30
2018-03-21T04:53:33.114Z,6.20
2018-03-21T04:54:32.899Z,7.50
2018-03-21T04:55:32.889Z,7.00
2018-03-21T04:56:32.880Z,9.20
2018-03-21T04:57:32.878Z,9.30
2018-03-21T04:58:32.857Z,7.40
2018-03-21T04:59:32.849Z,6.60
2018-03-21T05:00:33.047Z,9.80
2018-03-21T05:01:33.045Z,9.60
2018-03-21T05:02:32.817Z,6.40
2018-03-21T05:03:33.011Z,7.20
2018-03-21T05:04:32.799Z,6.50
2018-03-21T05:05:32.791Z,6.90
2018-03-21T05:06:32.799Z,7.80
2018-03-21T05:07:32.765Z,7.70
2018-03-21T05:08:32.961Z,7.50
2018-03-21T05:09:32.962Z,6.60
2018-03-21T05:10:32.734Z,6.00
2018-03-21T05:11:32.735Z,7.50
2018-03-21T05:12:32.944Z,8.60
2018-03-21T05:13:32.712Z,7.60
2018-03-21T05:14:32.694Z,7.80
2018-03-21T05:15:32.684Z,6.70
2018-03-21T05:16:32.700Z,7.90
2018-03-21T05:17:32.664Z,6.80
2018-03-21T05:18:32.662Z,11.50
2018-03-21T05:19:32.670Z,8.80
2018-03-21T05:20:32.645Z,7.50
2018-03-21T05:21:32.822Z,9.80
2018-03-21T05:22:32.621Z,7.60
2018-03-21T05:23:32.650Z,10.10
2018-03-21T05:24:32.604Z,6.40
2018-03-21T05:25:32.580Z,6.90
2018-03-21T05:26:32.581Z,7.70
2018-03-21T05:27:32.581Z,6.10
2018-03-21T05:28:32.547Z,7.60
2018-03-21T05:29:32.557Z,8.50
2018-03-21T05:30:32.651Z,7.40
2018-03-21T05:31:32.518Z,6.30
2018-03-21T05:32:32.517Z,10.20
2018-03-21T05:33:32.506Z,7.10
2018-03-21T05:34:32.495Z,7.50
2018-03-21T05:35:32.489Z,8.60
2018-03-21T05:36:32.469Z,6.80
2018-03-21T05:37:32.469Z,8.60
2018-03-21T05:38:32.450Z,9.90
2018-03-21T05:39:32.449Z,6.40
2018-03-21T05:40:32.423Z,8.40
2018-03-21T05:41:32.412Z,9.10
2018-03-21T05:42:32.402Z,8.70
2018-03-21T05:43:32.391Z,8.00
2018-03-21T05:44:32.423Z,8.30
2018-03-21T05:45:32.371Z,8.80
2018-03-21T05:46:32.371Z,7.70
2018-03-21T05:47:32.351Z,9.30
2018-03-21T05:48:32.340Z,8.50
2018-03-21T05:49:32.328Z,7.20
2018-03-21T05:50:32.318Z,8.90
2018-03-21T05:51:32.313Z,8.40
2018-03-21T05:52:32.300Z,10.80
2018-03-21T05:53:32.289Z,8.50
2018-03-21T05:54:32.283Z,8.90
2018-03-21T05:55:32.267Z,10.10
2018-03-21T05:56:32.264Z,8.70
2018-03-21T05:57:32.250Z,8.90
2018-03-21T05:58:32.248Z,10.80
2018-03-21T05:59:32.226Z,9.70
2018-03-21T06:00:32.220Z,8.60
2018-03-21T06:01:32.222Z,9.50
2018-03-21T06:02:32.204Z,11.50
2018-03-21T06:03:32.195Z,10.50
2018-03-21T06:04:32.197Z,12.70
2018-03-21T06:05:32.166Z,11.40
2018-03-21T06:06:32.156Z,12.90
2018-03-21T06:07:32.143Z,12.30
2018-03-21T06:08:32.137Z,10.80
2018-03-21T06:09:32.125Z,10.60
2018-03-21T06:10:32.119Z,11.10
2018-03-21T06:11:32.109Z,10.60
2018-03-21T06:12:32.094Z,12.60
2018-03-21T06:13:32.094Z,13.70
2018-03-21T06:14:32.082Z,13.90
2018-03-21T06:15:32.061Z,13.50
2018-03-21T06:16:32.050Z,12.70
2018-03-21T06:17:32.041Z,13.80
2018-03-21T06:18:32.042Z,13.10
2018-03-21T06:19:32.224Z,11.80
2018-03-21T06:20:32.008Z,12.80
2018-03-21T06:21:32.003Z,14.10
2018-03-21T06:22:31.990Z,14.90
2018-03-21T06:23:31.991Z,18.00
2018-03-21T06:24:31.968Z,16.30
2018-03-21T06:25:31.968Z,18.20
2018-03-21T06:26:31.948Z,18.60
2018-03-21T06:27:31.950Z,18.20
2018-03-21T06:28:31.931Z,16.60
2018-03-21T06:29:31.929Z,17.20
2018-03-21T06:30:31.906Z,16.60
2018-03-21T06:31:31.899Z,16.80
2018-03-21T06:32:31.943Z,16.00
2018-03-21T06:33:31.886Z,16.20
2018-03-21T06:34:32.069Z,14.20
2018-03-21T06:35:31.864Z,16.10
2018-03-21T06:36:31.845Z,17.60
2018-03-21T06:37:31.838Z,17.00
2018-03-21T06:38:31.827Z,20.30
2018-03-21T06:39:31.824Z,20.00
2018-03-21T06:40:31.803Z,16.60
2018-03-21T06:41:31.820Z,22.40
2018-03-21T06:42:31.811Z,15.90
2018-03-21T06:43:31.771Z,21.60
2018-03-21T06:44:31.764Z,18.70
2018-03-21T06:45:31.953Z,19.10
2018-03-21T06:46:31.740Z,19.60
2018-03-21T06:47:31.736Z,20.30
2018-03-21T06:48:31.930Z,17.30
2018-03-21T06:49:31.738Z,20.90
2018-03-21T06:50:31.712Z,19.50
2018-03-21T06:51:31.689Z,22.30
2018-03-21T06:52:31.677Z,23.50
2018-03-21T06:53:31.679Z,25.40
2018-03-21T06:54:31.656Z,34.10
2018-03-21T06:55:31.864Z,36.90
2018-03-21T06:56:31.638Z,43.70
2018-03-21T06:57:31.636Z,51.20
2018-03-21T06:58:31.616Z,54.60
2018-03-21T06:59:31.603Z,65.10
2018-03-21T07:00:31.596Z,72.80
2018-03-21T07:01:31.591Z,76.90
2018-03-21T07:02:31.611Z,89.30
2018-03-21T07:03:31.567Z,101.40
2018-03-21T07:04:31.561Z,125.10
2018-03-21T07:05:31.564Z,142.20
2018-03-21T07:06:31.528Z,141.50
2018-03-21T07:07:31.535Z,144.60
2018-03-21T07:08:31.518Z,150.50
2018-03-21T07:09:31.517Z,156.00
2018-03-21T07:10:31.513Z,163.40
2018-03-21T07:11:31.474Z,153.20
2018-03-21T07:12:31.475Z,161.30
2018-03-21T07:13:31.451Z,171.60
2018-03-21T07:14:31.464Z,178.60
2018-03-21T07:15:31.482Z,174.60
2018-03-21T07:16:31.420Z,196.40
2018-03-21T07:17:31.564Z,183.20
2018-03-21T07:18:31.396Z,196.60
2018-03-21T07:19:31.385Z,206.10
2018-03-21T07:20:31.380Z,202.50
2018-03-21T07:21:31.362Z,215.80
2018-03-21T07:22:31.351Z,222.80
2018-03-21T07:23:31.353Z,217.40
2018-03-21T07:24:31.534Z,230.30
2018-03-21T07:25:31.321Z,258.40
2018-03-21T07:26:31.306Z,271.40
2018-03-21T07:27:31.298Z,264.20
2018-03-21T07:28:31.286Z,289.50
2018-03-21T07:29:31.279Z,293.70
2018-03-21T07:30:31.477Z,283.30
2018-03-21T07:31:31.251Z,281.00
2018-03-21T07:32:31.290Z,284.30
2018-03-21T07:33:31.245Z,290.30
2018-03-21T07:34:31.244Z,288.80
2018-03-21T07:35:31.208Z,283.80
2018-03-21T07:36:31.208Z,289.20
2018-03-21T07:37:31.205Z,289.30
2018-03-21T07:38:31.177Z,297.90
2018-03-21T07:39:31.370Z,305.70
2018-03-21T07:40:31.154Z,300.50
2018-03-21T07:41:31.143Z,307.10
2018-03-21T07:42:31.133Z,297.90
2018-03-21T07:43:31.124Z,297.90
2018-03-21T07:44:31.122Z,293.20
2018-03-21T07:45:31.120Z,302.10
2018-03-21T07:46:31.090Z,304.20
2018-03-21T07:47:31.087Z,306.40
2018-03-21T07:48:31.076Z,281.70
2018-03-21T07:49:31.060Z,291.80
2018-03-21T07:50:31.258Z,281.00
2018-03-21T07:51:31.052Z,276.90
2018-03-21T07:52:31.030Z,306.80
2018-03-21T07:53:31.012Z,289.40
2018-03-21T07:54:31.030Z,290.90
2018-03-21T07:55:30.997Z,305.50
2018-03-21T07:56:31.188Z,288.20
2018-03-21T07:57:30.976Z,308.30
2018-03-21T07:58:31.017Z,295.80
2018-03-21T07:59:30.951Z,299.70
2018-03-21T08:00:30.943Z,289.40
2018-03-21T08:01:30.957Z,226.60
2018-03-21T08:02:30.918Z,205.40
2018-03-21T08:03:30.908Z,194.50
2018-03-21T08:04:30.903Z,190.80
2018-03-21T08:05:30.901Z,190.60
2018-03-21T08:06:30.887Z,171.10
2018-03-21T08:07:30.869Z,168.30
2018-03-21T08:08:30.861Z,168.20
2018-03-21T08:09:30.863Z,166.60
2018-03-21T08:10:30.835Z,164.60
2018-03-21T08:11:31.041Z,164.60
2018-03-21T08:12:30.818Z,162.80
2018-03-21T08:13:30.805Z,162.80
2018-03-21T08:14:30.801Z,174.40
2018-03-21T08:15:30.789Z,166.60
2018-03-21T08:16:30.775Z,163.00
2018-03-21T08:17:30.768Z,172.60
2018-03-21T08:18:30.755Z,171.40
2018-03-21T08:19:30.758Z,162.70
2018-03-21T08:20:30.735Z,161.80
2018-03-21T08:21:30.725Z,148.80
2018-03-21T08:22:30.711Z,146.10
2018-03-21T08:23:30.715Z,151.00
2018-03-21T08:24:30.701Z,142.00
2018-03-21T08:25:30.682Z,136.70
2018-03-21T08:26:30.673Z,128.20
2018-03-21T08:27:30.663Z,133.80
2018-03-21T08:28:30.662Z,133.60
2018-03-21T08:29:30.677Z,124.50
2018-03-21T08:30:30.648Z,123.20
2018-03-21T08:31:30.626Z,119.00
2018-03-21T08:32:30.617Z,119.30
2018-03-21T08:33:30.614Z,115.40
2018-03-21T08:34:30.795Z,116.30
2018-03-21T08:35:30.790Z,113.40
2018-03-21T08:36:30.589Z,112.40
2018-03-21T08:37:30.574Z,111.60
2018-03-21T08:38:30.549Z,112.80
2018-03-21T08:39:30.540Z,110.60
2018-03-21T08:40:30.550Z,107.20
2018-03-21T08:41:30.523Z,113.40
2018-03-21T08:42:30.562Z,107.10
2018-03-21T08:43:30.716Z,111.80
2018-03-21T08:44:30.502Z,107.80
2018-03-21T08:45:30.495Z,114.80
2018-03-21T08:46:30.479Z,109.30
2018-03-21T08:47:30.463Z,107.90
2018-03-21T08:48:30.451Z,110.40
2018-03-21T08:49:30.441Z,106.40
2018-03-21T08:50:30.442Z,105.20
2018-03-21T08:51:30.437Z,100.10
2018-03-21T08:52:30.416Z,95.00
2018-03-21T08:53:30.617Z,112.80
2018-03-21T08:54:30.390Z,110.90
2018-03-21T08:55:30.384Z,108.70
2018-03-21T08:56:30.593Z,104.70
2018-03-21T08:57:30.377Z,100.80
2018-03-21T08:58:30.568Z,91.00
2018-03-21T08:59:30.544Z,93.30
2018-03-21T09:00:30.332Z,90.90
2018-03-21T09:01:30.368Z,85.20
2018-03-21T09:02:30.312Z,89.10
2018-03-21T09:03:30.313Z,92.80
2018-03-21T09:04:30.313Z,93.80
2018-03-21T09:05:30.309Z,92.30
2018-03-21T09:06:30.277Z,82.60
2018-03-21T09:07:30.281Z,80.10
2018-03-21T09:08:30.255Z,82.70
2018-03-21T09:09:30.244Z,79.50
2018-03-21T09:10:30.237Z,83.30
2018-03-21T09:11:30.226Z,81.90
2018-03-21T09:12:30.228Z,82.90
2018-03-21T09:13:30.413Z,80.80
2018-03-21T09:14:30.201Z,78.20
2018-03-21T09:15:30.194Z,79.00
2018-03-21T09:16:30.384Z,77.30
2018-03-21T09:17:30.172Z,75.60
2018-03-21T09:18:30.164Z,76.10
2018-03-21T09:19:30.162Z,61.90
2018-03-21T09:20:30.149Z,55.40
2018-03-21T09:21:30.148Z,42.90
2018-03-21T09:22:30.327Z,49.20
2018-03-21T09:23:30.128Z,43.00
2018-03-21T09:24:30.106Z,44.00
2018-03-21T09:25:30.098Z,42.10
2018-03-21T09:26:30.293Z,45.20
2018-03-21T09:27:30.146Z,42.30
2018-03-21T09:28:30.129Z,46.30
2018-03-21T09:29:30.062Z,45.80
2018-03-21T09:30:30.067Z,42.50
2018-03-21T09:31:30.044Z,39.60
2018-03-21T09:32:30.238Z,40.10
2018-03-21T09:33:30.040Z,38.80
2018-03-21T09:34:30.219Z,36.10
2018-03-21T09:35:30.007Z,37.80
2018-03-21T09:36:30.024Z,38.40
2018-03-21T09:37:30.260Z,35.90
2018-03-21T09:38:29.993Z,35.30
2018-03-21T09:39:29.983Z,37.40
2018-03-21T09:40:30.179Z,36.80
2018-03-21T09:41:29.970Z,35.00
2018-03-21T09:42:29.944Z,37.40
2018-03-21T09:43:29.938Z,36.80
2018-03-21T09:44:30.157Z,34.10
2018-03-21T09:45:29.920Z,34.60
2018-03-21T09:46:29.913Z,38.20
2018-03-21T09:47:30.104Z,35.30
2018-03-21T09:48:30.106Z,36.60
2018-03-21T09:49:30.097Z,37.10
2018-03-21T09:50:29.874Z,36.60
2018-03-21T09:51:29.867Z,38.20
2018-03-21T09:52:30.071Z,39.70
2018-03-21T09:53:30.052Z,37.90
2018-03-21T09:54:29.843Z,44.10
2018-03-21T09:55:29.843Z,40.70
2018-03-21T09:56:29.835Z,44.50
2018-03-21T09:57:29.829Z,42.60
2018-03-21T09:58:29.821Z,43.50
2018-03-21T09:59:29.799Z,42.00
2018-03-21T10:00:30.023Z,37.80
2018-03-21T10:01:29.780Z,35.70
2018-03-21T10:02:29.781Z,40.60
2018-03-21T10:03:29.973Z,37.70
2018-03-21T10:04:29.772Z,40.10
2018-03-21T10:05:29.950Z,35.70
2018-03-21T10:06:29.745Z,38.60
2018-03-21T10:07:29.947Z,37.10
2018-03-21T10:08:29.722Z,37.40
2018-03-21T10:09:29.940Z,39.80
2018-03-21T10:10:29.919Z,44.60
2018-03-21T10:11:29.903Z,40.40
2018-03-21T10:12:29.686Z,42.90
2018-03-21T10:13:29.691Z,41.10
2018-03-21T10:14:29.695Z,38.80
2018-03-21T10:15:29.673Z,40.20
2018-03-21T10:16:29.666Z,42.10
2018-03-21T10:17:29.646Z,42.60
2018-03-21T10:18:29.647Z,41.00
2018-03-21T10:19:29.632Z,40.60
2018-03-21T10:20:29.621Z,42.60
2018-03-21T10:21:29.628Z,38.50
2018-03-21T10:22:29.616Z,40.70
2018-03-21T10:23:29.596Z,39.00
2018-03-21T10:24:29.601Z,41.10
2018-03-21T10:25:29.792Z,41.30
2018-03-21T10:26:29.786Z,40.90
2018-03-21T10:27:29.578Z,40.80
2018-03-21T10:28:29.565Z,41.40
2018-03-21T10:29:29.558Z,44.70
2018-03-21T10:30:29.563Z,45.80
2018-03-21T10:31:29.535Z,41.40
2018-03-21T10:32:29.533Z,43.10
2018-03-21T10:33:29.514Z,45.50
2018-03-21T10:34:29.507Z,44.10
2018-03-21T10:35:29.710Z,38.80
2018-03-21T10:36:29.756Z,38.80
2018-03-21T10:37:29.695Z,42.90
2018-03-21T10:38:29.470Z,41.10
2018-03-21T10:39:29.671Z,42.60
2018-03-21T10:40:29.479Z,41.00
2018-03-21T10:41:29.449Z,40.40
2018-03-21T10:42:29.463Z,43.20
2018-03-21T10:43:29.450Z,45.90
2018-03-21T10:44:29.421Z,43.80
2018-03-21T10:45:29.427Z,46.00
2018-03-21T10:46:29.409Z,44.30
2018-03-21T10:47:29.436Z,47.60
2018-03-21T10:48:29.389Z,42.60
2018-03-21T10:49:29.384Z,43.90
2018-03-21T10:50:29.382Z,42.70
2018-03-21T10:51:29.364Z,37.70
2018-03-21T10:52:38.779Z,41.40
2018-03-21T10:53:29.377Z,41.70
2018-03-21T10:54:29.383Z,43.40
2018-03-21T10:55:29.341Z,42.30
2018-03-21T10:56:29.334Z,48.30
2018-03-21T10:57:29.331Z,44.80
2018-03-21T10:58:29.308Z,45.10
2018-03-21T10:59:29.315Z,42.90
2018-03-21T11:00:29.302Z,44.50
2018-03-21T11:01:29.306Z,39.10
2018-03-21T11:02:29.285Z,44.80
2018-03-21T11:03:29.276Z,47.10
2018-03-21T11:04:29.259Z,40.20
2018-03-21T11:05:29.252Z,43.80
2018-03-21T11:06:29.282Z,46.50
2018-03-21T11:07:29.236Z,45.10
2018-03-21T11:08:29.228Z,45.80
2018-03-21T11:09:29.217Z,42.70
2018-03-21T11:10:29.221Z,40.80
2018-03-21T11:11:29.206Z,41.50
2018-03-21T11:12:29.206Z,43.70
2018-03-21T11:13:29.233Z,41.20
2018-03-21T11:14:29.188Z,40.60
2018-03-21T11:15:29.176Z,51.60
2018-03-21T11:16:29.231Z,48.10
2018-03-21T11:17:29.155Z,46.70
2018-03-21T11:18:29.159Z,46.00
2018-03-21T11:19:29.137Z,42.20
2018-03-21T11:20:29.146Z,50.50
2018-03-21T11:21:29.123Z,45.80
2018-03-21T11:22:29.133Z,43.80
2018-03-21T11:23:29.115Z,44.00
2018-03-21T11:24:29.103Z,47.90
2018-03-21T11:25:29.102Z,41.50
2018-03-21T11:26:29.087Z,47.10
2018-03-21T11:27:29.074Z,44.20
2018-03-21T11:28:29.069Z,43.70
2018-03-21T11:29:29.057Z,42.90
2018-03-21T11:30:29.071Z,41.50
2018-03-21T11:31:29.258Z,43.10
2018-03-21T11:32:29.050Z,43.50
2018-03-21T11:33:29.028Z,45.30
2018-03-21T11:34:29.030Z,49.30
2018-03-21T11:35:29.027Z,44.00
2018-03-21T11:36:29.006Z,43.40
2018-03-21T11:37:29.008Z,46.30
2018-03-21T11:38:28.989Z,47.30
2018-03-21T11:39:29.005Z,42.50
2018-03-21T11:40:28.976Z,48.20
2018-03-21T11:41:28.981Z,41.70
2018-03-21T11:42:28.965Z,45.40
2018-03-21T11:43:28.963Z,42.00
2018-03-21T11:44:28.939Z,42.80
2018-03-21T11:45:28.944Z,41.70
2018-03-21T11:46:28.927Z,44.10
2018-03-21T11:47:28.936Z,42.40
2018-03-21T11:48:28.911Z,43.80
2018-03-21T11:49:28.917Z,42.40
2018-03-21T11:50:28.894Z,43.80
2018-03-21T11:51:29.089Z,41.80
2018-03-21T11:52:29.082Z,43.20
2018-03-21T11:53:29.077Z,42.40
2018-03-21T11:54:28.863Z,43.30
2018-03-21T11:55:28.868Z,40.80
2018-03-21T11:56:28.859Z,40.50
2018-03-21T11:57:28.853Z,39.90
2018-03-21T11:58:29.042Z,37.20
2018-03-21T11:59:28.826Z,36.60
2018-03-21T12:00:28.818Z,42.50
2018-03-21T12:01:28.825Z,37.20
2018-03-21T12:02:29.006Z,37.70
2018-03-21T12:03:28.824Z,34.00
2018-03-21T12:04:28.786Z,34.30
2018-03-21T12:05:28.781Z,37.10
2018-03-21T12:06:28.794Z,38.70
2018-03-21T12:07:28.763Z,40.20
2018-03-21T12:08:28.812Z,40.10
2018-03-21T12:09:28.760Z,39.80
2018-03-21T12:10:28.767Z,40.20
2018-03-21T12:11:28.733Z,39.30
2018-03-21T12:12:28.739Z,35.40
2018-03-21T12:13:28.747Z,34.60
2018-03-21T12:14:28.712Z,31.10
2018-03-21T12:15:28.711Z,30.20
2018-03-21T12:16:28.715Z,37.00
2018-03-21T12:17:28.701Z,30.00
2018-03-21T12:18:28.683Z,30.00
2018-03-21T12:19:28.673Z,35.30
2018-03-21T12:20:28.668Z,34.20
2018-03-21T12:21:28.660Z,30.10
2018-03-21T12:22:28.666Z,33.40
2018-03-21T12:23:28.646Z,32.10
2018-03-21T12:24:28.649Z,27.60
2018-03-21T12:25:28.631Z,33.20
2018-03-21T12:26:28.656Z,28.60
2018-03-21T12:27:28.642Z,27.70
2018-03-21T12:28:28.625Z,28.80
2018-03-21T12:29:28.608Z,28.40
2018-03-21T12:30:28.606Z,31.20
2018-03-21T12:31:28.586Z,27.20
2018-03-21T12:32:28.582Z,28.80
2018-03-21T12:33:28.574Z,28.10
2018-03-21T12:34:28.566Z,25.50
2018-03-21T12:35:28.569Z,25.60
2018-03-21T12:36:28.558Z,30.20
2018-03-21T12:37:28.558Z,27.90
2018-03-21T12:38:28.546Z,23.60
2018-03-21T12:39:28.528Z,25.80
2018-03-21T12:40:28.535Z,29.70
2018-03-21T12:41:28.524Z,30.10
2018-03-21T12:42:28.518Z,27.80
2018-03-21T12:43:28.501Z,27.80
2018-03-21T12:44:28.568Z,27.70
2018-03-21T12:45:28.485Z,24.40
2018-03-21T12:46:28.492Z,23.50
2018-03-21T12:47:28.472Z,23.20
2018-03-21T12:48:28.476Z,27.50
2018-03-21T12:49:28.456Z,24.10
2018-03-21T12:50:28.454Z,26.40
2018-03-21T12:51:28.671Z,26.60
2018-03-21T12:52:28.434Z,25.40
2018-03-21T12:53:28.431Z,25.10
2018-03-21T12:54:28.431Z,26.50
2018-03-21T12:55:28.415Z,23.90
2018-03-21T12:56:28.406Z,26.10
2018-03-21T12:57:28.405Z,24.30
2018-03-21T12:58:28.414Z,25.90
2018-03-21T12:59:28.389Z,28.70
2018-03-21T13:00:28.381Z,25.40